Irving, TX

12:02 AM CDT on July 29, 2016 (GMT -0500)
Toler Lane, Irving, Texas USA | | Change Station

Elev 551 ft 32.84 °N, 96.96 °W | Updated 54 seconds ago

Mostly Cloudy
Mostly Cloudy
81.9 °F
Feels Like 88 °F
N
1.2
Wind Variable Wind from South
Gusts 1.2 mph

Today
High -- | Low -- °F
--% Chance of Precip.
Yesterday
High -- | Low -- °F
Precip. -- in
Pressure 29.91 in
Visibility 10.0 miles
Clouds Scattered Clouds 24000 ft
Mostly Cloudy 30000 ft
Heat Index 88 °F
Dew Point 74 °F
Humidity 77%
Rainfall 0.00 in
Snow Depth Not available.
6:39 AM 8:28 PM
Waning Crescent, 25% visible
METAR KDFW 290453Z 16007KT 10SM SCT240 BKN300 27/22 A2994 RMK AO2 SLP129 T02670222
Pressure 29.91 in
Visibility 10.0 miles
Clouds Scattered Clouds 24000 ft
Mostly Cloudy 30000 ft
Heat Index 88 °F
Dew Point 74 °F
Humidity 77%
Rainfall 0.00 in
Snow Depth Not available.
6:39 AM 8:28 PM
Waning Crescent, 25% visible
METAR KDFW 290453Z 16007KT 10SM SCT240 BKN300 27/22 A2994 RMK AO2 SLP129 T02670222

10-Day Weather Forecast

Almanac

Astronomy

Jul. 29, 2016 Rise Set
Actual Time
Civil Twilight
Nautical Twilight
Astronomical Twilight
Moon
Length of Visible Light
Length of Day
Tomorrow will be .
, % of the Moon is Illuminated

Today's Extremes

State Highs State Lows

Community

WunderPhotos

Upload Photos

1,928,294 photos uploaded!

WunderBlog® & News

Nearby

Air Quality

  Air Quality AQ Index Pollutant
Not available.

Snow Depth

Station Depth Elevation

Earthquake Activity

City Distance Mag. Time & Date
Minimum magnitude displayed is 2.5.

Coastal Water Temperatures

Place Temperature

Stations

Nearby Weather Stations

Station Location Temp. Windchill Dew Point Humidity Wind Precip. Elev Updated Type
                   

Watches & Warnings

There are currently no watches in effect.